sensor_id;sensor_type;location;lat;lon;timestamp;temperature;humidity
32187;DHT22;18686;53.084;8.872;2023-04-24T00:00:28;10.40;99.90
32187;DHT22;18686;53.084;8.872;2023-04-24T00:03:00;10.50;99.90
32187;DHT22;18686;53.084;8.872;2023-04-24T00:05:31;10.50;99.90
32187;DHT22;18686;53.084;8.872;2023-04-24T00:08:01;10.60;99.90
32187;DHT22;18686;53.084;8.872;2023-04-24T00:10:29;10.60;99.90
32187;DHT22;18686;53.084;8.872;2023-04-24T00:12:58;10.60;99.90
32187;DHT22;18686;53.084;8.872;2023-04-24T00:15:26;10.60;99.90
32187;DHT22;18686;53.084;8.872;2023-04-24T00:17:54;10.60;99.90
32187;DHT22;18686;53.084;8.872;2023-04-24T00:20:24;10.60;99.90
32187;DHT22;18686;53.084;8.872;2023-04-24T00:22:52;10.60;99.90
32187;DHT22;18686;53.084;8.872;2023-04-24T00:25:20;10.60;99.90
32187;DHT22;18686;53.084;8.872;2023-04-24T00:27:48;10.60;99.90
32187;DHT22;18686;53.084;8.872;2023-04-24T00:30:17;10.50;99.90
32187;DHT22;18686;53.084;8.872;2023-04-24T00:32:45;10.50;99.90
32187;DHT22;18686;53.084;8.872;2023-04-24T00:35:14;10.50;99.90
32187;DHT22;18686;53.084;8.872;2023-04-24T00:37:43;10.40;99.90
32187;DHT22;18686;53.084;8.872;2023-04-24T00:40:12;10.40;99.90
32187;DHT22;18686;53.084;8.872;2023-04-24T00:42:42;10.50;99.90
32187;DHT22;18686;53.084;8.872;2023-04-24T00:45:11;10.50;99.90
32187;DHT22;18686;53.084;8.872;2023-04-24T00:47:41;10.50;99.90
32187;DHT22;18686;53.084;8.872;2023-04-24T00:50:10;10.50;99.90
32187;DHT22;18686;53.084;8.872;2023-04-24T00:52:40;10.50;99.90
32187;DHT22;18686;53.084;8.872;2023-04-24T00:55:11;10.40;99.90
32187;DHT22;18686;53.084;8.872;2023-04-24T00:57:39;10.40;99.90
32187;DHT22;18686;53.084;8.872;2023-04-24T01:00:10;10.50;99.90
32187;DHT22;18686;53.084;8.872;2023-04-24T01:02:39;10.40;99.90
32187;DHT22;18686;53.084;8.872;2023-04-24T01:05:11;10.30;99.90
32187;DHT22;18686;53.084;8.872;2023-04-24T01:07:42;10.30;99.90
32187;DHT22;18686;53.084;8.872;2023-04-24T01:10:14;10.20;99.90
32187;DHT22;18686;53.084;8.872;2023-04-24T01:12:44;10.10;99.90
32187;DHT22;18686;53.084;8.872;2023-04-24T01:15:13;10.00;99.90
32187;DHT22;18686;53.084;8.872;2023-04-24T01:17:42;9.90;99.90
32187;DHT22;18686;53.084;8.872;2023-04-24T01:20:10;9.90;99.90
32187;DHT22;18686;53.084;8.872;2023-04-24T01:22:42;9.90;99.90
32187;DHT22;18686;53.084;8.872;2023-04-24T01:25:10;9.90;99.90
32187;DHT22;18686;53.084;8.872;2023-04-24T01:27:38;9.90;99.90
32187;DHT22;18686;53.084;8.872;2023-04-24T01:30:08;9.90;99.90
32187;DHT22;18686;53.084;8.872;2023-04-24T01:32:36;10.00;99.90
32187;DHT22;18686;53.084;8.872;2023-04-24T01:35:06;10.00;99.90
32187;DHT22;18686;53.084;8.872;2023-04-24T01:37:35;10.00;99.90
32187;DHT22;18686;53.084;8.872;2023-04-24T01:40:07;10.00;99.90
32187;DHT22;18686;53.084;8.872;2023-04-24T01:42:35;10.00;99.90
32187;DHT22;18686;53.084;8.872;2023-04-24T01:45:05;10.00;99.90
32187;DHT22;18686;53.084;8.872;2023-04-24T01:47:33;10.00;99.90
32187;DHT22;18686;53.084;8.872;2023-04-24T01:50:02;10.00;99.90
32187;DHT22;18686;53.084;8.872;2023-04-24T01:52:31;10.00;99.90
32187;DHT22;18686;53.084;8.872;2023-04-24T01:55:00;10.00;99.90
32187;DHT22;18686;53.084;8.872;2023-04-24T01:57:30;10.00;99.90
32187;DHT22;18686;53.084;8.872;2023-04-24T01:59:58;10.00;99.90
32187;DHT22;18686;53.084;8.872;2023-04-24T02:02:28;10.00;99.90
32187;DHT22;18686;53.084;8.872;2023-04-24T02:04:57;10.00;99.90
32187;DHT22;18686;53.084;8.872;2023-04-24T02:07:25;10.00;99.90
32187;DHT22;18686;53.084;8.872;2023-04-24T02:09:53;10.00;99.90
32187;DHT22;18686;53.084;8.872;2023-04-24T02:12:22;9.90;99.90
32187;DHT22;18686;53.084;8.872;2023-04-24T02:14:52;10.00;99.90
32187;DHT22;18686;53.084;8.872;2023-04-24T02:17:20;10.00;99.90
32187;DHT22;18686;53.084;8.872;2023-04-24T02:19:49;10.10;99.90
32187;DHT22;18686;53.084;8.872;2023-04-24T02:22:17;10.10;99.90
32187;DHT22;18686;53.084;8.872;2023-04-24T02:24:46;10.20;99.90
32187;DHT22;18686;53.084;8.872;2023-04-24T02:27:15;10.20;99.90
32187;DHT22;18686;53.084;8.872;2023-04-24T02:29:43;10.20;99.90
32187;DHT22;18686;53.084;8.872;2023-04-24T02:32:13;10.30;99.90
32187;DHT22;18686;53.084;8.872;2023-04-24T02:34:44;10.30;99.90
32187;DHT22;18686;53.084;8.872;2023-04-24T02:37:13;10.30;99.90
32187;DHT22;18686;53.084;8.872;2023-04-24T02:39:43;10.30;99.90
32187;DHT22;18686;53.084;8.872;2023-04-24T02:42:11;10.30;99.90
32187;DHT22;18686;53.084;8.872;2023-04-24T02:44:39;10.30;99.90
32187;DHT22;18686;53.084;8.872;2023-04-24T02:47:07;10.30;99.90
32187;DHT22;18686;53.084;8.872;2023-04-24T02:49:40;10.30;99.90
32187;DHT22;18686;53.084;8.872;2023-04-24T02:52:10;10.30;99.90
32187;DHT22;18686;53.084;8.872;2023-04-24T02:54:38;10.30;99.90
32187;DHT22;18686;53.084;8.872;2023-04-24T02:57:06;10.30;99.90
32187;DHT22;18686;53.084;8.872;2023-04-24T02:59:38;10.40;99.90
32187;DHT22;18686;53.084;8.872;2023-04-24T03:02:06;10.40;99.90
32187;DHT22;18686;53.084;8.872;2023-04-24T03:04:34;10.40;99.90
32187;DHT22;18686;53.084;8.872;2023-04-24T03:07:04;10.40;99.90
32187;DHT22;18686;53.084;8.872;2023-04-24T03:09:33;10.40;99.90
32187;DHT22;18686;53.084;8.872;2023-04-24T03:12:01;10.40;99.90
32187;DHT22;18686;53.084;8.872;2023-04-24T03:14:30;10.50;99.90
32187;DHT22;18686;53.084;8.872;2023-04-24T03:16:59;10.50;99.90
32187;DHT22;18686;53.084;8.872;2023-04-24T03:19:27;10.50;99.90
32187;DHT22;18686;53.084;8.872;2023-04-24T03:22:02;10.50;99.90
32187;DHT22;18686;53.084;8.872;2023-04-24T03:24:32;10.50;99.90
32187;DHT22;18686;53.084;8.872;2023-04-24T03:27:00;10.50;99.90
32187;DHT22;18686;53.084;8.872;2023-04-24T03:29:47;10.50;99.90
32187;DHT22;18686;53.084;8.872;2023-04-24T03:32:19;10.60;99.90
32187;DHT22;18686;53.084;8.872;2023-04-24T03:34:47;10.60;99.90
32187;DHT22;18686;53.084;8.872;2023-04-24T03:37:16;10.60;99.90
32187;DHT22;18686;53.084;8.872;2023-04-24T03:39:54;10.60;99.90
32187;DHT22;18686;53.084;8.872;2023-04-24T03:42:24;10.60;99.90
32187;DHT22;18686;53.084;8.872;2023-04-24T03:44:55;10.60;99.90
32187;DHT22;18686;53.084;8.872;2023-04-24T03:47:28;10.60;99.90
32187;DHT22;18686;53.084;8.872;2023-04-24T03:50:00;10.60;99.90
32187;DHT22;18686;53.084;8.872;2023-04-24T03:52:30;10.60;99.90
32187;DHT22;18686;53.084;8.872;2023-04-24T03:55:00;10.70;99.90
32187;DHT22;18686;53.084;8.872;2023-04-24T03:57:30;10.60;99.90
32187;DHT22;18686;53.084;8.872;2023-04-24T04:00:10;10.70;99.90
32187;DHT22;18686;53.084;8.872;2023-04-24T04:02:45;10.70;99.90
32187;DHT22;18686;53.084;8.872;2023-04-24T04:05:14;10.70;99.90
32187;DHT22;18686;53.084;8.872;2023-04-24T04:07:42;10.70;99.90
32187;DHT22;18686;53.084;8.872;2023-04-24T04:10:12;10.70;99.90
32187;DHT22;18686;53.084;8.872;2023-04-24T04:12:40;10.70;99.90
32187;DHT22;18686;53.084;8.872;2023-04-24T04:15:09;10.70;99.90
32187;DHT22;18686;53.084;8.872;2023-04-24T04:17:37;10.70;99.90
32187;DHT22;18686;53.084;8.872;2023-04-24T04:20:07;10.70;99.90
32187;DHT22;18686;53.084;8.872;2023-04-24T04:22:39;10.70;99.90
32187;DHT22;18686;53.084;8.872;2023-04-24T04:25:14;10.70;99.90
32187;DHT22;18686;53.084;8.872;2023-04-24T04:27:42;10.70;99.90
32187;DHT22;18686;53.084;8.872;2023-04-24T04:30:13;10.70;99.90
32187;DHT22;18686;53.084;8.872;2023-04-24T04:32:48;10.70;99.90
32187;DHT22;18686;53.084;8.872;2023-04-24T04:35:19;10.70;99.90
32187;DHT22;18686;53.084;8.872;2023-04-24T04:37:49;10.80;99.90
32187;DHT22;18686;53.084;8.872;2023-04-24T04:40:38;10.80;99.90
32187;DHT22;18686;53.084;8.872;2023-04-24T04:43:07;10.80;99.90
32187;DHT22;18686;53.084;8.872;2023-04-24T04:45:42;10.80;99.90
32187;DHT22;18686;53.084;8.872;2023-04-24T04:48:28;10.80;99.90
32187;DHT22;18686;53.084;8.872;2023-04-24T04:51:00;10.80;99.90
32187;DHT22;18686;53.084;8.872;2023-04-24T04:53:28;10.90;99.90
32187;DHT22;18686;53.084;8.872;2023-04-24T04:55:58;10.90;99.90
32187;DHT22;18686;53.084;8.872;2023-04-24T04:58:39;10.90;99.90
32187;DHT22;18686;53.084;8.872;2023-04-24T05:01:11;10.90;99.90
32187;DHT22;18686;53.084;8.872;2023-04-24T05:03:42;11.00;99.90
32187;DHT22;18686;53.084;8.872;2023-04-24T05:06:13;11.00;99.90
32187;DHT22;18686;53.084;8.872;2023-04-24T05:08:43;11.00;99.90
32187;DHT22;18686;53.084;8.872;2023-04-24T05:11:23;11.00;99.90
32187;DHT22;18686;53.084;8.872;2023-04-24T05:13:52;11.10;99.90
32187;DHT22;18686;53.084;8.872;2023-04-24T05:16:31;11.10;99.90
32187;DHT22;18686;53.084;8.872;2023-04-24T05:19:00;11.10;99.90
32187;DHT22;18686;53.084;8.872;2023-04-24T05:21:33;11.10;99.90
32187;DHT22;18686;53.084;8.872;2023-04-24T05:24:02;11.10;99.90
32187;DHT22;18686;53.084;8.872;2023-04-24T05:26:45;11.20;99.90
32187;DHT22;18686;53.084;8.872;2023-04-24T05:29:41;11.20;99.90
32187;DHT22;18686;53.084;8.872;2023-04-24T05:32:10;11.30;99.90
32187;DHT22;18686;53.084;8.872;2023-04-24T05:37:45;11.30;99.90
32187;DHT22;18686;53.084;8.872;2023-04-24T05:40:14;11.40;99.90
32187;DHT22;18686;53.084;8.872;2023-04-24T05:42:44;11.40;99.90
32187;DHT22;18686;53.084;8.872;2023-04-24T05:45:12;11.40;99.90
32187;DHT22;18686;53.084;8.872;2023-04-24T05:47:43;11.40;99.90
32187;DHT22;18686;53.084;8.872;2023-04-24T05:50:12;11.50;99.90
32187;DHT22;18686;53.084;8.872;2023-04-24T05:52:40;11.60;99.90
32187;DHT22;18686;53.084;8.872;2023-04-24T05:55:21;11.70;99.90
32187;DHT22;18686;53.084;8.872;2023-04-24T05:57:52;11.80;99.90
32187;DHT22;18686;53.084;8.872;2023-04-24T06:00:20;11.90;99.90
32187;DHT22;18686;53.084;8.872;2023-04-24T06:05:58;12.00;99.90
32187;DHT22;18686;53.084;8.872;2023-04-24T06:08:27;12.20;99.90
32187;DHT22;18686;53.084;8.872;2023-04-24T06:10:55;12.20;99.90
32187;DHT22;18686;53.084;8.872;2023-04-24T06:13:25;12.30;99.90
32187;DHT22;18686;53.084;8.872;2023-04-24T06:16:14;12.30;99.90
32187;DHT22;18686;53.084;8.872;2023-04-24T06:18:47;12.40;99.90
32187;DHT22;18686;53.084;8.872;2023-04-24T06:21:16;12.40;99.90
32187;DHT22;18686;53.084;8.872;2023-04-24T06:23:44;12.40;99.90
32187;DHT22;18686;53.084;8.872;2023-04-24T06:26:14;12.40;99.90
32187;DHT22;18686;53.084;8.872;2023-04-24T06:28:43;12.30;99.90
32187;DHT22;18686;53.084;8.872;2023-04-24T06:31:12;12.30;99.90
32187;DHT22;18686;53.084;8.872;2023-04-24T06:33:40;12.30;99.90
32187;DHT22;18686;53.084;8.872;2023-04-24T06:36:09;12.30;99.90
32187;DHT22;18686;53.084;8.872;2023-04-24T06:38:38;12.30;99.90
32187;DHT22;18686;53.084;8.872;2023-04-24T06:41:06;12.40;99.90
32187;DHT22;18686;53.084;8.872;2023-04-24T06:43:34;12.40;99.90
32187;DHT22;18686;53.084;8.872;2023-04-24T06:46:04;12.50;99.90
32187;DHT22;18686;53.084;8.872;2023-04-24T06:48:32;12.50;99.90
32187;DHT22;18686;53.084;8.872;2023-04-24T06:51:00;12.60;99.90
32187;DHT22;18686;53.084;8.872;2023-04-24T06:53:28;12.60;99.90
32187;DHT22;18686;53.084;8.872;2023-04-24T06:55:56;12.60;99.90
32187;DHT22;18686;53.084;8.872;2023-04-24T06:58:25;12.60;99.90
32187;DHT22;18686;53.084;8.872;2023-04-24T07:00:53;12.60;99.90
32187;DHT22;18686;53.084;8.872;2023-04-24T07:03:22;12.50;99.90
32187;DHT22;18686;53.084;8.872;2023-04-24T07:05:51;12.50;99.90
32187;DHT22;18686;53.084;8.872;2023-04-24T07:08:20;12.40;99.90
32187;DHT22;18686;53.084;8.872;2023-04-24T07:10:49;12.40;99.90
32187;DHT22;18686;53.084;8.872;2023-04-24T07:13:17;12.30;99.90
32187;DHT22;18686;53.084;8.872;2023-04-24T07:15:47;12.20;99.90
32187;DHT22;18686;53.084;8.872;2023-04-24T07:18:17;12.30;99.90
32187;DHT22;18686;53.084;8.872;2023-04-24T07:20:47;12.40;99.90
32187;DHT22;18686;53.084;8.872;2023-04-24T07:23:17;12.60;99.90
32187;DHT22;18686;53.084;8.872;2023-04-24T07:25:45;12.60;99.90
32187;DHT22;18686;53.084;8.872;2023-04-24T07:28:13;12.80;99.90
32187;DHT22;18686;53.084;8.872;2023-04-24T07:30:43;12.80;99.90
32187;DHT22;18686;53.084;8.872;2023-04-24T07:33:11;12.90;99.90
32187;DHT22;18686;53.084;8.872;2023-04-24T07:35:40;13.00;99.90
32187;DHT22;18686;53.084;8.872;2023-04-24T07:38:09;13.00;99.90
32187;DHT22;18686;53.084;8.872;2023-04-24T07:40:38;13.10;99.90
32187;DHT22;18686;53.084;8.872;2023-04-24T07:43:06;13.20;99.90
32187;DHT22;18686;53.084;8.872;2023-04-24T07:45:34;13.20;99.90
32187;DHT22;18686;53.084;8.872;2023-04-24T07:48:04;13.30;99.90
32187;DHT22;18686;53.084;8.872;2023-04-24T07:50:33;13.20;99.90
32187;DHT22;18686;53.084;8.872;2023-04-24T07:53:01;13.20;99.90
32187;DHT22;18686;53.084;8.872;2023-04-24T07:55:31;13.30;99.90
32187;DHT22;18686;53.084;8.872;2023-04-24T07:57:59;13.20;99.90
32187;DHT22;18686;53.084;8.872;2023-04-24T08:00:27;13.20;99.90
32187;DHT22;18686;53.084;8.872;2023-04-24T08:02:55;13.30;99.90
32187;DHT22;18686;53.084;8.872;2023-04-24T08:05:23;13.20;99.90
32187;DHT22;18686;53.084;8.872;2023-04-24T08:07:54;13.20;99.90
32187;DHT22;18686;53.084;8.872;2023-04-24T08:10:23;13.10;99.90
32187;DHT22;18686;53.084;8.872;2023-04-24T08:12:52;13.10;99.90
32187;DHT22;18686;53.084;8.872;2023-04-24T08:15:23;13.00;99.90
32187;DHT22;18686;53.084;8.872;2023-04-24T08:17:54;13.10;99.90
32187;DHT22;18686;53.084;8.872;2023-04-24T08:20:25;13.00;99.90
32187;DHT22;18686;53.084;8.872;2023-04-24T08:22:54;12.90;99.90
32187;DHT22;18686;53.084;8.872;2023-04-24T08:25:23;12.90;99.90
32187;DHT22;18686;53.084;8.872;2023-04-24T08:27:53;12.90;99.90
32187;DHT22;18686;53.084;8.872;2023-04-24T08:30:21;13.00;99.90
32187;DHT22;18686;53.084;8.872;2023-04-24T08:32:50;13.20;99.90
32187;DHT22;18686;53.084;8.872;2023-04-24T08:35:18;13.20;99.90
32187;DHT22;18686;53.084;8.872;2023-04-24T08:37:46;13.30;99.90
32187;DHT22;18686;53.084;8.872;2023-04-24T08:40:15;13.30;99.90
32187;DHT22;18686;53.084;8.872;2023-04-24T08:42:45;13.50;99.90
32187;DHT22;18686;53.084;8.872;2023-04-24T08:45:14;13.70;99.90
32187;DHT22;18686;53.084;8.872;2023-04-24T08:47:43;13.80;99.90
32187;DHT22;18686;53.084;8.872;2023-04-24T08:50:12;13.90;99.90
32187;DHT22;18686;53.084;8.872;2023-04-24T08:52:41;14.10;99.60
32187;DHT22;18686;53.084;8.872;2023-04-24T08:55:10;14.30;98.60
32187;DHT22;18686;53.084;8.872;2023-04-24T08:57:39;14.50;97.20
32187;DHT22;18686;53.084;8.872;2023-04-24T09:00:08;14.70;97.20
32187;DHT22;18686;53.084;8.872;2023-04-24T09:02:42;14.90;97.50
32187;DHT22;18686;53.084;8.872;2023-04-24T09:05:12;15.10;96.80
32187;DHT22;18686;53.084;8.872;2023-04-24T09:07:44;15.30;96.00
32187;DHT22;18686;53.084;8.872;2023-04-24T09:10:13;15.50;95.20
32187;DHT22;18686;53.084;8.872;2023-04-24T09:12:42;15.50;94.00
32187;DHT22;18686;53.084;8.872;2023-04-24T09:15:11;15.40;93.10
32187;DHT22;18686;53.084;8.872;2023-04-24T09:17:41;15.40;94.80
32187;DHT22;18686;53.084;8.872;2023-04-24T09:20:10;15.20;94.20
32187;DHT22;18686;53.084;8.872;2023-04-24T09:22:42;14.90;94.20
32187;DHT22;18686;53.084;8.872;2023-04-24T09:25:10;14.80;94.40
32187;DHT22;18686;53.084;8.872;2023-04-24T09:27:42;14.50;94.60
32187;DHT22;18686;53.084;8.872;2023-04-24T09:30:11;14.30;95.20
32187;DHT22;18686;53.084;8.872;2023-04-24T09:32:42;14.60;95.60
32187;DHT22;18686;53.084;8.872;2023-04-24T09:35:11;15.10;94.20
32187;DHT22;18686;53.084;8.872;2023-04-24T09:37:41;15.10;92.80
32187;DHT22;18686;53.084;8.872;2023-04-24T09:40:15;14.80;92.60
32187;DHT22;18686;53.084;8.872;2023-04-24T09:42:45;14.60;93.20
32187;DHT22;18686;53.084;8.872;2023-04-24T09:45:13;14.40;93.60
32187;DHT22;18686;53.084;8.872;2023-04-24T09:47:43;14.30;94.20
32187;DHT22;18686;53.084;8.872;2023-04-24T09:50:13;14.10;94.40
32187;DHT22;18686;53.084;8.872;2023-04-24T09:52:44;14.10;95.00
32187;DHT22;18686;53.084;8.872;2023-04-24T09:55:17;14.10;95.40
32187;DHT22;18686;53.084;8.872;2023-04-24T09:57:52;14.00;95.50
32187;DHT22;18686;53.084;8.872;2023-04-24T10:00:25;13.90;95.30
32187;DHT22;18686;53.084;8.872;2023-04-24T10:02:56;13.70;95.40
32187;DHT22;18686;53.084;8.872;2023-04-24T10:05:27;13.60;96.20
32187;DHT22;18686;53.084;8.872;2023-04-24T10:08:01;13.60;96.40
32187;DHT22;18686;53.084;8.872;2023-04-24T10:10:30;13.50;96.20
32187;DHT22;18686;53.084;8.872;2023-04-24T10:12:59;13.30;96.10
32187;DHT22;18686;53.084;8.872;2023-04-24T10:15:27;13.20;96.80
32187;DHT22;18686;53.084;8.872;2023-04-24T10:17:58;13.10;97.10
32187;DHT22;18686;53.084;8.872;2023-04-24T10:20:28;13.00;97.10
32187;DHT22;18686;53.084;8.872;2023-04-24T10:22:58;13.00;97.50
32187;DHT22;18686;53.084;8.872;2023-04-24T10:25:28;12.90;98.00
32187;DHT22;18686;53.084;8.872;2023-04-24T10:27:57;12.90;98.50
32187;DHT22;18686;53.084;8.872;2023-04-24T10:30:27;12.80;99.00
32187;DHT22;18686;53.084;8.872;2023-04-24T10:32:57;12.80;99.80
32187;DHT22;18686;53.084;8.872;2023-04-24T10:35:25;12.80;99.20
32187;DHT22;18686;53.084;8.872;2023-04-24T10:37:58;12.70;99.50
32187;DHT22;18686;53.084;8.872;2023-04-24T10:40:30;12.50;99.80
32187;DHT22;18686;53.084;8.872;2023-04-24T10:43:01;12.40;99.90
32187;DHT22;18686;53.084;8.872;2023-04-24T10:45:32;12.40;99.90
32187;DHT22;18686;53.084;8.872;2023-04-24T10:48:05;12.30;99.90
32187;DHT22;18686;53.084;8.872;2023-04-24T10:50:45;12.30;99.90
32187;DHT22;18686;53.084;8.872;2023-04-24T10:53:15;12.40;99.90
32187;DHT22;18686;53.084;8.872;2023-04-24T10:55:46;12.40;99.90
32187;DHT22;18686;53.084;8.872;2023-04-24T10:58:14;12.60;99.90
32187;DHT22;18686;53.084;8.872;2023-04-24T11:00:44;12.70;99.90
32187;DHT22;18686;53.084;8.872;2023-04-24T11:03:27;12.90;99.90
32187;DHT22;18686;53.084;8.872;2023-04-24T11:05:58;13.00;99.90
32187;DHT22;18686;53.084;8.872;2023-04-24T11:08:31;13.10;99.90
32187;DHT22;18686;53.084;8.872;2023-04-24T11:11:02;13.10;99.90
32187;DHT22;18686;53.084;8.872;2023-04-24T11:14:03;13.00;99.90
32187;DHT22;18686;53.084;8.872;2023-04-24T11:16:34;13.10;99.90
32187;DHT22;18686;53.084;8.872;2023-04-24T11:19:05;13.30;99.60
32187;DHT22;18686;53.084;8.872;2023-04-24T11:21:42;13.50;99.00
32187;DHT22;18686;53.084;8.872;2023-04-24T11:24:30;13.50;98.90
32187;DHT22;18686;53.084;8.872;2023-04-24T11:27:05;13.60;98.70
32187;DHT22;18686;53.084;8.872;2023-04-24T11:29:42;13.80;98.30
32187;DHT22;18686;53.084;8.872;2023-04-24T11:32:18;13.70;97.80
32187;DHT22;18686;53.084;8.872;2023-04-24T11:34:49;13.70;98.50
32187;DHT22;18686;53.084;8.872;2023-04-24T11:37:18;13.60;98.80
32187;DHT22;18686;53.084;8.872;2023-04-24T11:39:46;13.30;98.70
32187;DHT22;18686;53.084;8.872;2023-04-24T11:42:15;13.10;99.30
32187;DHT22;18686;53.084;8.872;2023-04-24T11:44:43;13.00;99.90
32187;DHT22;18686;53.084;8.872;2023-04-24T11:47:14;12.90;99.70
32187;DHT22;18686;53.084;8.872;2023-04-24T11:49:44;12.70;99.90
32187;DHT22;18686;53.084;8.872;2023-04-24T11:52:17;12.60;99.90
32187;DHT22;18686;53.084;8.872;2023-04-24T11:54:49;12.50;99.90
32187;DHT22;18686;53.084;8.872;2023-04-24T11:57:19;12.30;99.90
32187;DHT22;18686;53.084;8.872;2023-04-24T11:59:49;12.10;99.90
32187;DHT22;18686;53.084;8.872;2023-04-24T12:02:22;12.00;99.90
32187;DHT22;18686;53.084;8.872;2023-04-24T12:04:51;11.90;99.90
32187;DHT22;18686;53.084;8.872;2023-04-24T12:07:23;11.80;99.90
32187;DHT22;18686;53.084;8.872;2023-04-24T12:09:56;11.80;99.90
32187;DHT22;18686;53.084;8.872;2023-04-24T12:12:26;11.60;99.90
32187;DHT22;18686;53.084;8.872;2023-04-24T12:14:56;11.50;99.90
32187;DHT22;18686;53.084;8.872;2023-04-24T12:17:26;11.50;99.90
32187;DHT22;18686;53.084;8.872;2023-04-24T12:19:58;11.50;99.90
32187;DHT22;18686;53.084;8.872;2023-04-24T12:22:43;11.60;99.90
32187;DHT22;18686;53.084;8.872;2023-04-24T12:25:12;11.70;99.90
32187;DHT22;18686;53.084;8.872;2023-04-24T12:27:40;11.80;99.90
32187;DHT22;18686;53.084;8.872;2023-04-24T12:30:12;11.80;99.90
32187;DHT22;18686;53.084;8.872;2023-04-24T12:32:42;11.80;99.90
32187;DHT22;18686;53.084;8.872;2023-04-24T12:35:11;11.80;99.90
32187;DHT22;18686;53.084;8.872;2023-04-24T12:37:42;11.80;99.90
32187;DHT22;18686;53.084;8.872;2023-04-24T12:40:14;11.70;99.90
32187;DHT22;18686;53.084;8.872;2023-04-24T12:42:43;11.60;99.90
32187;DHT22;18686;53.084;8.872;2023-04-24T12:45:12;11.60;99.90
32187;DHT22;18686;53.084;8.872;2023-04-24T12:47:42;11.50;99.90
32187;DHT22;18686;53.084;8.872;2023-04-24T12:50:11;11.50;99.90
32187;DHT22;18686;53.084;8.872;2023-04-24T12:52:41;11.40;99.90
32187;DHT22;18686;53.084;8.872;2023-04-24T12:55:10;11.20;99.90
32187;DHT22;18686;53.084;8.872;2023-04-24T12:57:39;11.20;99.90
32187;DHT22;18686;53.084;8.872;2023-04-24T13:00:08;11.00;99.90
32187;DHT22;18686;53.084;8.872;2023-04-24T13:02:37;10.90;99.90
32187;DHT22;18686;53.084;8.872;2023-04-24T13:05:06;10.80;99.90
32187;DHT22;18686;53.084;8.872;2023-04-24T13:07:34;10.90;99.90
32187;DHT22;18686;53.084;8.872;2023-04-24T13:10:04;10.90;99.90
32187;DHT22;18686;53.084;8.872;2023-04-24T13:12:32;11.00;99.90
32187;DHT22;18686;53.084;8.872;2023-04-24T13:15:00;10.90;99.90
32187;DHT22;18686;53.084;8.872;2023-04-24T13:17:29;10.90;99.90
32187;DHT22;18686;53.084;8.872;2023-04-24T13:19:57;10.80;99.90
32187;DHT22;18686;53.084;8.872;2023-04-24T13:22:27;10.70;99.90
32187;DHT22;18686;53.084;8.872;2023-04-24T13:24:55;10.60;99.90
32187;DHT22;18686;53.084;8.872;2023-04-24T13:27:25;10.50;99.90
32187;DHT22;18686;53.084;8.872;2023-04-24T13:29:53;10.40;99.90
32187;DHT22;18686;53.084;8.872;2023-04-24T13:32:21;10.30;99.90
32187;DHT22;18686;53.084;8.872;2023-04-24T13:34:50;10.10;99.90
32187;DHT22;18686;53.084;8.872;2023-04-24T13:37:18;10.00;99.90
32187;DHT22;18686;53.084;8.872;2023-04-24T13:39:46;9.90;99.90
32187;DHT22;18686;53.084;8.872;2023-04-24T13:42:14;9.80;99.90
32187;DHT22;18686;53.084;8.872;2023-04-24T13:44:44;9.80;99.90
32187;DHT22;18686;53.084;8.872;2023-04-24T13:47:12;9.70;99.90
32187;DHT22;18686;53.084;8.872;2023-04-24T13:49:40;9.70;99.90
32187;DHT22;18686;53.084;8.872;2023-04-24T13:52:08;9.60;99.90
32187;DHT22;18686;53.084;8.872;2023-04-24T13:54:37;9.50;99.90
32187;DHT22;18686;53.084;8.872;2023-04-24T13:57:05;9.50;99.90
32187;DHT22;18686;53.084;8.872;2023-04-24T13:59:34;9.50;99.90
32187;DHT22;18686;53.084;8.872;2023-04-24T14:02:03;9.30;99.90
32187;DHT22;18686;53.084;8.872;2023-04-24T14:04:31;9.30;99.90
32187;DHT22;18686;53.084;8.872;2023-04-24T14:07:00;9.30;99.90
32187;DHT22;18686;53.084;8.872;2023-04-24T14:09:28;9.30;99.90
32187;DHT22;18686;53.084;8.872;2023-04-24T14:11:56;9.30;99.90
32187;DHT22;18686;53.084;8.872;2023-04-24T14:14:24;9.30;99.90
32187;DHT22;18686;53.084;8.872;2023-04-24T14:16:53;9.30;99.90
32187;DHT22;18686;53.084;8.872;2023-04-24T14:19:22;9.30;99.90
32187;DHT22;18686;53.084;8.872;2023-04-24T14:21:50;9.30;99.90
32187;DHT22;18686;53.084;8.872;2023-04-24T14:24:19;9.30;99.90
32187;DHT22;18686;53.084;8.872;2023-04-24T14:26:47;9.30;99.90
32187;DHT22;18686;53.084;8.872;2023-04-24T14:29:15;9.30;99.90
32187;DHT22;18686;53.084;8.872;2023-04-24T14:31:44;9.20;99.90
32187;DHT22;18686;53.084;8.872;2023-04-24T14:34:13;9.10;99.90
32187;DHT22;18686;53.084;8.872;2023-04-24T14:36:43;9.00;99.90
32187;DHT22;18686;53.084;8.872;2023-04-24T14:39:11;9.00;99.90
32187;DHT22;18686;53.084;8.872;2023-04-24T14:41:39;9.00;99.90
32187;DHT22;18686;53.084;8.872;2023-04-24T14:44:26;9.00;99.90
32187;DHT22;18686;53.084;8.872;2023-04-24T14:46:54;9.00;99.90
32187;DHT22;18686;53.084;8.872;2023-04-24T14:49:23;9.00;99.90
32187;DHT22;18686;53.084;8.872;2023-04-24T14:51:52;9.00;99.90
32187;DHT22;18686;53.084;8.872;2023-04-24T14:54:22;9.00;99.90
32187;DHT22;18686;53.084;8.872;2023-04-24T14:56:51;8.90;99.90
32187;DHT22;18686;53.084;8.872;2023-04-24T14:59:19;8.90;99.90
32187;DHT22;18686;53.084;8.872;2023-04-24T15:01:47;8.90;99.90
32187;DHT22;18686;53.084;8.872;2023-04-24T15:04:24;8.80;99.90
32187;DHT22;18686;53.084;8.872;2023-04-24T15:06:55;8.80;99.90
32187;DHT22;18686;53.084;8.872;2023-04-24T15:09:24;8.80;99.90
32187;DHT22;18686;53.084;8.872;2023-04-24T15:11:54;8.80;99.90
32187;DHT22;18686;53.084;8.872;2023-04-24T15:14:23;8.80;99.90
32187;DHT22;18686;53.084;8.872;2023-04-24T15:16:51;8.80;99.90
32187;DHT22;18686;53.084;8.872;2023-04-24T15:19:19;8.90;99.90
32187;DHT22;18686;53.084;8.872;2023-04-24T15:21:47;9.00;99.90
32187;DHT22;18686;53.084;8.872;2023-04-24T15:24:17;9.00;99.90
32187;DHT22;18686;53.084;8.872;2023-04-24T15:26:45;9.00;99.90
32187;DHT22;18686;53.084;8.872;2023-04-24T15:29:13;9.00;99.90
32187;DHT22;18686;53.084;8.872;2023-04-24T15:31:41;9.00;99.90
32187;DHT22;18686;53.084;8.872;2023-04-24T15:34:09;9.00;99.90
32187;DHT22;18686;53.084;8.872;2023-04-24T15:36:37;9.10;99.90
32187;DHT22;18686;53.084;8.872;2023-04-24T15:39:06;9.10;99.90
32187;DHT22;18686;53.084;8.872;2023-04-24T15:41:39;9.10;99.90
32187;DHT22;18686;53.084;8.872;2023-04-24T15:44:07;9.10;99.90
32187;DHT22;18686;53.084;8.872;2023-04-24T15:46:35;9.10;99.90
32187;DHT22;18686;53.084;8.872;2023-04-24T15:49:03;9.10;99.90
32187;DHT22;18686;53.084;8.872;2023-04-24T15:51:32;9.10;99.90
32187;DHT22;18686;53.084;8.872;2023-04-24T15:54:00;9.10;99.90
32187;DHT22;18686;53.084;8.872;2023-04-24T15:56:28;9.10;99.90